sensor_id;sensor_type;location;lat;lon;timestamp;temperature;humidity
3330;DHT22;1677;49.576;10.990;2023-03-14T00:01:23;9.80;99.90
3330;DHT22;1677;49.576;10.990;2023-03-14T00:03:49;9.90;99.90
3330;DHT22;1677;49.576;10.990;2023-03-14T00:06:16;9.90;99.90
3330;DHT22;1677;49.576;10.990;2023-03-14T00:08:43;9.80;99.90
3330;DHT22;1677;49.576;10.990;2023-03-14T00:11:14;9.60;99.90
3330;DHT22;1677;49.576;10.990;2023-03-14T00:13:40;9.60;99.90
3330;DHT22;1677;49.576;10.990;2023-03-14T00:16:09;9.60;99.90
3330;DHT22;1677;49.576;10.990;2023-03-14T00:18:35;9.90;99.90
3330;DHT22;1677;49.576;10.990;2023-03-14T00:21:02;9.60;99.90
3330;DHT22;1677;49.576;10.990;2023-03-14T00:23:30;9.60;99.90
3330;DHT22;1677;49.576;10.990;2023-03-14T00:26:00;9.50;99.90
3330;DHT22;1677;49.576;10.990;2023-03-14T00:28:26;9.50;99.90
3330;DHT22;1677;49.576;10.990;2023-03-14T00:30:52;9.50;99.90
3330;DHT22;1677;49.576;10.990;2023-03-14T00:33:18;9.40;99.90
3330;DHT22;1677;49.576;10.990;2023-03-14T00:35:43;9.40;99.90
3330;DHT22;1677;49.576;10.990;2023-03-14T00:38:09;9.40;99.90
3330;DHT22;1677;49.576;10.990;2023-03-14T00:40:39;9.50;99.90
3330;DHT22;1677;49.576;10.990;2023-03-14T00:43:04;9.50;99.90
3330;DHT22;1677;49.576;10.990;2023-03-14T00:45:30;9.50;99.90
3330;DHT22;1677;49.576;10.990;2023-03-14T00:47:55;9.40;99.90
3330;DHT22;1677;49.576;10.990;2023-03-14T00:50:21;9.40;99.90
3330;DHT22;1677;49.576;10.990;2023-03-14T00:52:46;9.40;99.90
3330;DHT22;1677;49.576;10.990;2023-03-14T00:55:14;9.40;99.90
3330;DHT22;1677;49.576;10.990;2023-03-14T00:57:39;9.40;99.90
3330;DHT22;1677;49.576;10.990;2023-03-14T01:00:05;9.40;99.90
3330;DHT22;1677;49.576;10.990;2023-03-14T01:02:33;9.50;99.90
3330;DHT22;1677;49.576;10.990;2023-03-14T01:04:58;9.80;99.90
3330;DHT22;1677;49.576;10.990;2023-03-14T01:07:24;9.70;99.90
3330;DHT22;1677;49.576;10.990;2023-03-14T01:09:52;9.60;99.90
3330;DHT22;1677;49.576;10.990;2023-03-14T01:12:17;9.60;99.90
3330;DHT22;1677;49.576;10.990;2023-03-14T01:14:43;9.60;99.90
3330;DHT22;1677;49.576;10.990;2023-03-14T01:17:08;9.60;99.90
3330;DHT22;1677;49.576;10.990;2023-03-14T01:19:34;9.70;99.90
3330;DHT22;1677;49.576;10.990;2023-03-14T01:22:00;9.70;99.90
3330;DHT22;1677;49.576;10.990;2023-03-14T01:24:25;9.70;99.90
3330;DHT22;1677;49.576;10.990;2023-03-14T01:26:51;9.70;99.90
3330;DHT22;1677;49.576;10.990;2023-03-14T01:29:16;9.70;99.90
3330;DHT22;1677;49.576;10.990;2023-03-14T01:31:42;9.70;99.90
3330;DHT22;1677;49.576;10.990;2023-03-14T01:34:07;9.70;99.90
3330;DHT22;1677;49.576;10.990;2023-03-14T01:36:33;9.70;99.90
3330;DHT22;1677;49.576;10.990;2023-03-14T01:38:58;9.70;99.90
3330;DHT22;1677;49.576;10.990;2023-03-14T01:41:25;9.70;99.90
3330;DHT22;1677;49.576;10.990;2023-03-14T01:43:51;9.70;99.90
3330;DHT22;1677;49.576;10.990;2023-03-14T01:51:40;9.60;99.90
3330;DHT22;1677;49.576;10.990;2023-03-14T01:54:19;9.60;99.90
3330;DHT22;1677;49.576;10.990;2023-03-14T01:56:52;9.60;99.90
3330;DHT22;1677;49.576;10.990;2023-03-14T01:59:18;9.60;99.90
3330;DHT22;1677;49.576;10.990;2023-03-14T02:01:46;9.70;99.90
3330;DHT22;1677;49.576;10.990;2023-03-14T02:04:14;9.60;99.90
3330;DHT22;1677;49.576;10.990;2023-03-14T02:06:59;9.60;99.90
3330;DHT22;1677;49.576;10.990;2023-03-14T02:09:26;9.60;99.90
3330;DHT22;1677;49.576;10.990;2023-03-14T02:11:52;9.60;99.90
3330;DHT22;1677;49.576;10.990;2023-03-14T02:14:26;9.50;99.90
3330;DHT22;1677;49.576;10.990;2023-03-14T02:16:53;9.50;99.90
3330;DHT22;1677;49.576;10.990;2023-03-14T02:19:27;9.50;99.90
3330;DHT22;1677;49.576;10.990;2023-03-14T02:22:10;9.50;99.90
3330;DHT22;1677;49.576;10.990;2023-03-14T02:27:13;9.50;99.90
3330;DHT22;1677;49.576;10.990;2023-03-14T02:32:13;9.50;99.90
3330;DHT22;1677;49.576;10.990;2023-03-14T02:34:40;9.80;99.90
3330;DHT22;1677;49.576;10.990;2023-03-14T02:37:07;9.70;99.90
3330;DHT22;1677;49.576;10.990;2023-03-14T02:39:40;9.70;99.90
3330;DHT22;1677;49.576;10.990;2023-03-14T02:42:07;9.70;99.90
3330;DHT22;1677;49.576;10.990;2023-03-14T02:44:32;9.60;99.90
3330;DHT22;1677;49.576;10.990;2023-03-14T02:46:58;9.90;99.90
3330;DHT22;1677;49.576;10.990;2023-03-14T02:49:25;9.80;99.90
3330;DHT22;1677;49.576;10.990;2023-03-14T02:51:52;9.70;99.90
3330;DHT22;1677;49.576;10.990;2023-03-14T02:54:19;9.80;99.90
3330;DHT22;1677;49.576;10.990;2023-03-14T02:56:45;9.60;99.90
3330;DHT22;1677;49.576;10.990;2023-03-14T02:59:11;9.50;99.90
3330;DHT22;1677;49.576;10.990;2023-03-14T03:01:36;9.50;99.90
3330;DHT22;1677;49.576;10.990;2023-03-14T03:04:02;9.40;99.90
3330;DHT22;1677;49.576;10.990;2023-03-14T03:06:28;9.40;99.90
3330;DHT22;1677;49.576;10.990;2023-03-14T03:08:53;9.40;99.90
3330;DHT22;1677;49.576;10.990;2023-03-14T03:11:19;9.40;99.90
3330;DHT22;1677;49.576;10.990;2023-03-14T03:13:44;9.50;99.90
3330;DHT22;1677;49.576;10.990;2023-03-14T03:16:10;9.50;99.90
3330;DHT22;1677;49.576;10.990;2023-03-14T03:18:38;9.40;99.90
3330;DHT22;1677;49.576;10.990;2023-03-14T03:21:05;9.40;99.90
3330;DHT22;1677;49.576;10.990;2023-03-14T03:23:31;9.40;99.90
3330;DHT22;1677;49.576;10.990;2023-03-14T03:25:57;9.40;99.90
3330;DHT22;1677;49.576;10.990;2023-03-14T03:28:22;9.40;99.90
3330;DHT22;1677;49.576;10.990;2023-03-14T03:30:48;9.40;99.90
3330;DHT22;1677;49.576;10.990;2023-03-14T03:33:14;9.40;99.90
3330;DHT22;1677;49.576;10.990;2023-03-14T03:35:44;9.40;99.90
3330;DHT22;1677;49.576;10.990;2023-03-14T03:38:10;9.50;99.90
3330;DHT22;1677;49.576;10.990;2023-03-14T03:40:37;9.40;99.90
3330;DHT22;1677;49.576;10.990;2023-03-14T03:43:02;9.40;99.90
3330;DHT22;1677;49.576;10.990;2023-03-14T03:45:29;9.40;99.90
3330;DHT22;1677;49.576;10.990;2023-03-14T03:47:55;9.30;99.90
3330;DHT22;1677;49.576;10.990;2023-03-14T03:50:20;9.30;99.90
3330;DHT22;1677;49.576;10.990;2023-03-14T03:52:46;9.50;99.90
3330;DHT22;1677;49.576;10.990;2023-03-14T03:55:11;9.70;99.90
3330;DHT22;1677;49.576;10.990;2023-03-14T03:57:37;9.60;99.90
3330;DHT22;1677;49.576;10.990;2023-03-14T04:00:03;9.60;99.90
3330;DHT22;1677;49.576;10.990;2023-03-14T04:02:30;9.70;99.90
3330;DHT22;1677;49.576;10.990;2023-03-14T04:04:56;9.70;99.90
3330;DHT22;1677;49.576;10.990;2023-03-14T04:07:21;9.60;99.90
3330;DHT22;1677;49.576;10.990;2023-03-14T04:09:47;9.60;99.90
3330;DHT22;1677;49.576;10.990;2023-03-14T04:12:12;9.70;99.90
3330;DHT22;1677;49.576;10.990;2023-03-14T04:14:38;9.60;99.90
3330;DHT22;1677;49.576;10.990;2023-03-14T04:17:06;9.50;99.90
3330;DHT22;1677;49.576;10.990;2023-03-14T04:19:32;9.70;99.90
3330;DHT22;1677;49.576;10.990;2023-03-14T04:21:57;9.70;99.90
3330;DHT22;1677;49.576;10.990;2023-03-14T04:24:23;9.70;99.90
3330;DHT22;1677;49.576;10.990;2023-03-14T04:26:49;9.60;99.90
3330;DHT22;1677;49.576;10.990;2023-03-14T04:29:14;9.60;99.90
3330;DHT22;1677;49.576;10.990;2023-03-14T04:31:40;9.60;99.90
3330;DHT22;1677;49.576;10.990;2023-03-14T04:34:05;9.60;99.90
3330;DHT22;1677;49.576;10.990;2023-03-14T04:36:31;9.60;99.90
3330;DHT22;1677;49.576;10.990;2023-03-14T04:38:56;9.70;99.90
3330;DHT22;1677;49.576;10.990;2023-03-14T04:41:22;9.60;99.90
3330;DHT22;1677;49.576;10.990;2023-03-14T04:43:48;9.60;99.90
3330;DHT22;1677;49.576;10.990;2023-03-14T04:46:13;9.40;99.90
3330;DHT22;1677;49.576;10.990;2023-03-14T04:48:39;9.20;99.90
3330;DHT22;1677;49.576;10.990;2023-03-14T04:51:05;9.20;99.90
3330;DHT22;1677;49.576;10.990;2023-03-14T04:53:30;9.10;99.90
3330;DHT22;1677;49.576;10.990;2023-03-14T04:55:56;9.00;99.90
3330;DHT22;1677;49.576;10.990;2023-03-14T04:58:23;9.00;99.90
3330;DHT22;1677;49.576;10.990;2023-03-14T05:01:02;9.00;99.90
3330;DHT22;1677;49.576;10.990;2023-03-14T05:03:28;9.00;99.90
3330;DHT22;1677;49.576;10.990;2023-03-14T05:05:53;9.00;99.90
3330;DHT22;1677;49.576;10.990;2023-03-14T05:08:20;8.90;99.90
3330;DHT22;1677;49.576;10.990;2023-03-14T05:10:52;8.90;99.90
3330;DHT22;1677;49.576;10.990;2023-03-14T05:13:17;8.90;99.90
3330;DHT22;1677;49.576;10.990;2023-03-14T05:15:43;8.90;99.90
3330;DHT22;1677;49.576;10.990;2023-03-14T05:18:09;9.00;99.90
3330;DHT22;1677;49.576;10.990;2023-03-14T05:20:34;8.90;99.90
3330;DHT22;1677;49.576;10.990;2023-03-14T05:23:00;8.90;99.90
3330;DHT22;1677;49.576;10.990;2023-03-14T05:25:26;8.90;99.90
3330;DHT22;1677;49.576;10.990;2023-03-14T05:27:54;8.90;99.90
3330;DHT22;1677;49.576;10.990;2023-03-14T05:30:20;8.80;99.90
3330;DHT22;1677;49.576;10.990;2023-03-14T05:32:47;8.80;99.90
3330;DHT22;1677;49.576;10.990;2023-03-14T05:35:12;8.80;99.90
3330;DHT22;1677;49.576;10.990;2023-03-14T05:37:38;8.80;99.90
3330;DHT22;1677;49.576;10.990;2023-03-14T05:40:05;8.80;99.90
3330;DHT22;1677;49.576;10.990;2023-03-14T05:42:32;8.80;99.90
3330;DHT22;1677;49.576;10.990;2023-03-14T05:44:58;8.80;99.90
3330;DHT22;1677;49.576;10.990;2023-03-14T05:47:23;8.90;99.90
3330;DHT22;1677;49.576;10.990;2023-03-14T05:49:49;8.90;99.90
3330;DHT22;1677;49.576;10.990;2023-03-14T05:52:14;9.00;99.90
3330;DHT22;1677;49.576;10.990;2023-03-14T05:54:40;8.90;99.90
3330;DHT22;1677;49.576;10.990;2023-03-14T05:57:06;9.10;99.90
3330;DHT22;1677;49.576;10.990;2023-03-14T05:59:32;9.10;99.90
3330;DHT22;1677;49.576;10.990;2023-03-14T06:01:57;9.30;99.90
3330;DHT22;1677;49.576;10.990;2023-03-14T06:04:24;9.20;99.90
3330;DHT22;1677;49.576;10.990;2023-03-14T06:06:50;9.30;99.90
3330;DHT22;1677;49.576;10.990;2023-03-14T06:09:16;9.30;99.90
3330;DHT22;1677;49.576;10.990;2023-03-14T06:11:41;9.10;99.90
3330;DHT22;1677;49.576;10.990;2023-03-14T06:14:07;9.10;99.90
3330;DHT22;1677;49.576;10.990;2023-03-14T06:16:33;9.20;99.90
3330;DHT22;1677;49.576;10.990;2023-03-14T06:18:58;9.20;99.90
3330;DHT22;1677;49.576;10.990;2023-03-14T06:21:25;9.20;99.90
3330;DHT22;1677;49.576;10.990;2023-03-14T06:23:50;9.10;99.90
3330;DHT22;1677;49.576;10.990;2023-03-14T06:26:16;9.10;99.90
3330;DHT22;1677;49.576;10.990;2023-03-14T06:28:41;9.10;99.90
3330;DHT22;1677;49.576;10.990;2023-03-14T06:31:07;9.10;99.90
3330;DHT22;1677;49.576;10.990;2023-03-14T06:33:33;9.20;99.90
3330;DHT22;1677;49.576;10.990;2023-03-14T06:35:58;9.30;99.90
3330;DHT22;1677;49.576;10.990;2023-03-14T06:38:24;9.10;99.90
3330;DHT22;1677;49.576;10.990;2023-03-14T06:40:49;9.10;99.90
3330;DHT22;1677;49.576;10.990;2023-03-14T06:43:15;9.20;99.90
3330;DHT22;1677;49.576;10.990;2023-03-14T06:45:40;9.20;99.90
3330;DHT22;1677;49.576;10.990;2023-03-14T06:48:06;9.30;99.90
3330;DHT22;1677;49.576;10.990;2023-03-14T06:50:31;9.40;99.90
3330;DHT22;1677;49.576;10.990;2023-03-14T06:52:57;9.50;99.90
3330;DHT22;1677;49.576;10.990;2023-03-14T06:55:23;9.50;99.90
3330;DHT22;1677;49.576;10.990;2023-03-14T06:57:48;9.40;99.90
3330;DHT22;1677;49.576;10.990;2023-03-14T07:00:14;9.40;99.90
3330;DHT22;1677;49.576;10.990;2023-03-14T07:02:40;9.50;99.90
3330;DHT22;1677;49.576;10.990;2023-03-14T07:05:06;9.40;99.90
3330;DHT22;1677;49.576;10.990;2023-03-14T07:07:32;9.60;99.90
3330;DHT22;1677;49.576;10.990;2023-03-14T07:09:58;9.80;99.90
3330;DHT22;1677;49.576;10.990;2023-03-14T07:12:23;9.60;99.90
3330;DHT22;1677;49.576;10.990;2023-03-14T07:14:49;9.40;99.90
3330;DHT22;1677;49.576;10.990;2023-03-14T07:17:14;9.50;99.90
3330;DHT22;1677;49.576;10.990;2023-03-14T07:19:40;9.60;99.90
3330;DHT22;1677;49.576;10.990;2023-03-14T07:22:06;9.40;99.90
3330;DHT22;1677;49.576;10.990;2023-03-14T07:24:31;9.70;99.90
3330;DHT22;1677;49.576;10.990;2023-03-14T07:26:57;9.70;99.90
3330;DHT22;1677;49.576;10.990;2023-03-14T07:29:22;10.00;99.90
3330;DHT22;1677;49.576;10.990;2023-03-14T07:31:48;10.10;99.90
3330;DHT22;1677;49.576;10.990;2023-03-14T07:34:14;9.80;99.90
3330;DHT22;1677;49.576;10.990;2023-03-14T07:36:39;10.00;99.90
3330;DHT22;1677;49.576;10.990;2023-03-14T07:39:05;10.00;99.90
3330;DHT22;1677;49.576;10.990;2023-03-14T07:41:31;9.90;99.90
3330;DHT22;1677;49.576;10.990;2023-03-14T07:43:56;10.00;99.90
3330;DHT22;1677;49.576;10.990;2023-03-14T07:46:22;10.10;99.90
3330;DHT22;1677;49.576;10.990;2023-03-14T07:48:48;10.10;99.90
3330;DHT22;1677;49.576;10.990;2023-03-14T07:51:13;10.10;99.90
3330;DHT22;1677;49.576;10.990;2023-03-14T07:53:39;10.60;99.90
3330;DHT22;1677;49.576;10.990;2023-03-14T07:56:05;12.00;99.90
3330;DHT22;1677;49.576;10.990;2023-03-14T07:58:30;12.40;99.90
3330;DHT22;1677;49.576;10.990;2023-03-14T08:00:58;12.60;99.90
3330;DHT22;1677;49.576;10.990;2023-03-14T08:03:24;13.00;99.90
3330;DHT22;1677;49.576;10.990;2023-03-14T08:05:50;14.60;99.90
3330;DHT22;1677;49.576;10.990;2023-03-14T08:08:17;16.60;99.90
3330;DHT22;1677;49.576;10.990;2023-03-14T08:10:43;15.90;99.90
3330;DHT22;1677;49.576;10.990;2023-03-14T08:13:09;13.40;99.90
3330;DHT22;1677;49.576;10.990;2023-03-14T08:15:35;11.60;99.90
3330;DHT22;1677;49.576;10.990;2023-03-14T08:18:02;10.90;99.90
3330;DHT22;1677;49.576;10.990;2023-03-14T08:20:29;10.70;99.90
3330;DHT22;1677;49.576;10.990;2023-03-14T08:22:59;10.80;99.90
3330;DHT22;1677;49.576;10.990;2023-03-14T08:25:26;10.60;99.90
3330;DHT22;1677;49.576;10.990;2023-03-14T08:27:52;10.50;99.90
3330;DHT22;1677;49.576;10.990;2023-03-14T08:30:19;10.60;99.90
3330;DHT22;1677;49.576;10.990;2023-03-14T08:32:45;10.70;99.90
3330;DHT22;1677;49.576;10.990;2023-03-14T08:35:10;11.40;99.90
3330;DHT22;1677;49.576;10.990;2023-03-14T08:37:36;11.40;99.90
3330;DHT22;1677;49.576;10.990;2023-03-14T08:40:03;11.10;99.90
3330;DHT22;1677;49.576;10.990;2023-03-14T08:42:36;11.20;99.90
3330;DHT22;1677;49.576;10.990;2023-03-14T08:45:01;11.40;99.90
3330;DHT22;1677;49.576;10.990;2023-03-14T08:47:27;11.50;99.90
3330;DHT22;1677;49.576;10.990;2023-03-14T08:49:53;11.40;99.90
3330;DHT22;1677;49.576;10.990;2023-03-14T08:52:18;11.40;99.90
3330;DHT22;1677;49.576;10.990;2023-03-14T08:54:44;11.20;99.90
3330;DHT22;1677;49.576;10.990;2023-03-14T08:57:10;11.30;99.90
3330;DHT22;1677;49.576;10.990;2023-03-14T08:59:36;11.20;99.90
3330;DHT22;1677;49.576;10.990;2023-03-14T09:02:01;11.30;99.90
3330;DHT22;1677;49.576;10.990;2023-03-14T09:04:32;11.90;99.90
3330;DHT22;1677;49.576;10.990;2023-03-14T09:06:58;12.40;99.90
3330;DHT22;1677;49.576;10.990;2023-03-14T09:09:27;11.90;99.90
3330;DHT22;1677;49.576;10.990;2023-03-14T09:11:54;12.00;99.90
3330;DHT22;1677;49.576;10.990;2023-03-14T09:14:19;12.00;99.90
3330;DHT22;1677;49.576;10.990;2023-03-14T09:16:45;11.90;99.90
3330;DHT22;1677;49.576;10.990;2023-03-14T09:19:11;11.90;99.90
3330;DHT22;1677;49.576;10.990;2023-03-14T09:21:36;11.80;99.90
3330;DHT22;1677;49.576;10.990;2023-03-14T09:24:04;11.70;99.90
3330;DHT22;1677;49.576;10.990;2023-03-14T09:26:30;11.80;99.90
3330;DHT22;1677;49.576;10.990;2023-03-14T09:28:55;11.80;99.90
3330;DHT22;1677;49.576;10.990;2023-03-14T09:31:21;11.70;99.90
3330;DHT22;1677;49.576;10.990;2023-03-14T09:33:47;11.90;99.90
3330;DHT22;1677;49.576;10.990;2023-03-14T09:36:12;12.10;99.90
3330;DHT22;1677;49.576;10.990;2023-03-14T09:38:38;12.10;99.90
3330;DHT22;1677;49.576;10.990;2023-03-14T09:41:21;12.20;99.90
3330;DHT22;1677;49.576;10.990;2023-03-14T09:43:52;12.20;99.90
3330;DHT22;1677;49.576;10.990;2023-03-14T09:46:20;12.30;99.90
3330;DHT22;1677;49.576;10.990;2023-03-14T09:48:46;12.20;99.90
3330;DHT22;1677;49.576;10.990;2023-03-14T09:51:17;12.30;99.90
3330;DHT22;1677;49.576;10.990;2023-03-14T09:53:46;12.30;99.90
3330;DHT22;1677;49.576;10.990;2023-03-14T09:56:21;12.30;99.90
3330;DHT22;1677;49.576;10.990;2023-03-14T09:58:55;12.10;99.90
3330;DHT22;1677;49.576;10.990;2023-03-14T10:01:28;12.00;99.90
3330;DHT22;1677;49.576;10.990;2023-03-14T10:03:56;12.00;99.90
3330;DHT22;1677;49.576;10.990;2023-03-14T10:06:27;12.00;99.90
3330;DHT22;1677;49.576;10.990;2023-03-14T10:08:53;12.10;99.90
3330;DHT22;1677;49.576;10.990;2023-03-14T10:11:20;12.30;99.90
3330;DHT22;1677;49.576;10.990;2023-03-14T10:14:06;12.30;99.90
3330;DHT22;1677;49.576;10.990;2023-03-14T10:16:35;12.20;99.90
3330;DHT22;1677;49.576;10.990;2023-03-14T10:19:03;12.40;99.90
3330;DHT22;1677;49.576;10.990;2023-03-14T10:21:30;12.50;99.90
3330;DHT22;1677;49.576;10.990;2023-03-14T10:27:02;12.50;99.90
3330;DHT22;1677;49.576;10.990;2023-03-14T10:29:30;12.70;99.90
3330;DHT22;1677;49.576;10.990;2023-03-14T10:32:02;12.40;99.90
3330;DHT22;1677;49.576;10.990;2023-03-14T10:34:33;12.60;99.90
3330;DHT22;1677;49.576;10.990;2023-03-14T10:37:17;12.90;99.90
3330;DHT22;1677;49.576;10.990;2023-03-14T10:39:52;12.90;99.90
3330;DHT22;1677;49.576;10.990;2023-03-14T10:42:29;12.90;99.90
3330;DHT22;1677;49.576;10.990;2023-03-14T10:45:04;12.80;99.90
3330;DHT22;1677;49.576;10.990;2023-03-14T10:47:33;12.80;99.90
3330;DHT22;1677;49.576;10.990;2023-03-14T10:50:26;13.00;99.90
3330;DHT22;1677;49.576;10.990;2023-03-14T10:52:53;13.10;99.90
3330;DHT22;1677;49.576;10.990;2023-03-14T10:55:19;13.20;99.90
3330;DHT22;1677;49.576;10.990;2023-03-14T10:57:45;13.30;99.90
3330;DHT22;1677;49.576;10.990;2023-03-14T11:00:19;13.50;99.90
3330;DHT22;1677;49.576;10.990;2023-03-14T11:08:18;17.80;99.90
3330;DHT22;1677;49.576;10.990;2023-03-14T11:10:48;17.30;99.90
3330;DHT22;1677;49.576;10.990;2023-03-14T11:13:41;17.70;99.90
3330;DHT22;1677;49.576;10.990;2023-03-14T11:19:05;17.60;99.90
3330;DHT22;1677;49.576;10.990;2023-03-14T11:25:04;17.10;99.90
3330;DHT22;1677;49.576;10.990;2023-03-14T11:27:48;16.00;99.90
3330;DHT22;1677;49.576;10.990;2023-03-14T11:30:34;15.40;99.90
3330;DHT22;1677;49.576;10.990;2023-03-14T11:33:21;17.50;99.90
3330;DHT22;1677;49.576;10.990;2023-03-14T11:36:09;18.90;99.90
3330;DHT22;1677;49.576;10.990;2023-03-14T11:38:40;19.10;99.90
3330;DHT22;1677;49.576;10.990;2023-03-14T11:41:13;20.00;98.50
3330;DHT22;1677;49.576;10.990;2023-03-14T11:43:40;21.10;96.00
3330;DHT22;1677;49.576;10.990;2023-03-14T11:46:34;19.30;96.30
3330;DHT22;1677;49.576;10.990;2023-03-14T11:49:47;16.50;99.90
3330;DHT22;1677;49.576;10.990;2023-03-14T11:51:52;16.60;99.90
3330;DHT22;1677;49.576;10.990;2023-03-14T11:54:42;16.60;99.90
3330;DHT22;1677;49.576;10.990;2023-03-14T11:57:14;15.70;99.90
3330;DHT22;1677;49.576;10.990;2023-03-14T11:59:57;15.40;99.90
3330;DHT22;1677;49.576;10.990;2023-03-14T12:02:33;15.20;99.90
3330;DHT22;1677;49.576;10.990;2023-03-14T12:07:34;16.30;99.90
3330;DHT22;1677;49.576;10.990;2023-03-14T12:10:03;16.30;99.90
3330;DHT22;1677;49.576;10.990;2023-03-14T12:12:29;16.20;99.90
3330;DHT22;1677;49.576;10.990;2023-03-14T12:15:00;16.00;99.90
3330;DHT22;1677;49.576;10.990;2023-03-14T12:17:41;15.60;99.90
3330;DHT22;1677;49.576;10.990;2023-03-14T12:22:45;14.90;99.90
3330;DHT22;1677;49.576;10.990;2023-03-14T12:25:30;15.00;99.90
3330;DHT22;1677;49.576;10.990;2023-03-14T12:35:42;15.60;99.90
3330;DHT22;1677;49.576;10.990;2023-03-14T12:38:32;15.20;99.90
3330;DHT22;1677;49.576;10.990;2023-03-14T12:41:08;15.00;99.90
3330;DHT22;1677;49.576;10.990;2023-03-14T12:43:38;14.70;99.90
3330;DHT22;1677;49.576;10.990;2023-03-14T12:48:29;14.70;99.90
3330;DHT22;1677;49.576;10.990;2023-03-14T12:51:00;14.60;99.90
3330;DHT22;1677;49.576;10.990;2023-03-14T12:59:23;14.20;99.90
3330;DHT22;1677;49.576;10.990;2023-03-14T13:04:31;13.70;99.90
3330;DHT22;1677;49.576;10.990;2023-03-14T13:06:59;13.70;99.90
3330;DHT22;1677;49.576;10.990;2023-03-14T13:12:16;13.60;99.90
3330;DHT22;1677;49.576;10.990;2023-03-14T13:14:48;13.20;99.90
3330;DHT22;1677;49.576;10.990;2023-03-14T13:17:15;13.30;99.90
3330;DHT22;1677;49.576;10.990;2023-03-14T13:19:44;13.10;99.90
3330;DHT22;1677;49.576;10.990;2023-03-14T13:22:27;13.00;99.90
3330;DHT22;1677;49.576;10.990;2023-03-14T13:25:06;12.30;99.90
3330;DHT22;1677;49.576;10.990;2023-03-14T13:27:34;12.00;99.90
3330;DHT22;1677;49.576;10.990;2023-03-14T13:32:43;11.80;99.90
3330;DHT22;1677;49.576;10.990;2023-03-14T13:37:44;11.50;99.90
3330;DHT22;1677;49.576;10.990;2023-03-14T13:40:20;11.30;99.90
3330;DHT22;1677;49.576;10.990;2023-03-14T13:42:45;11.20;99.90
3330;DHT22;1677;49.576;10.990;2023-03-14T13:45:13;11.30;99.90
3330;DHT22;1677;49.576;10.990;2023-03-14T13:47:39;11.40;99.90
3330;DHT22;1677;49.576;10.990;2023-03-14T13:50:14;11.60;99.90
3330;DHT22;1677;49.576;10.990;2023-03-14T13:52:40;11.40;99.90
3330;DHT22;1677;49.576;10.990;2023-03-14T13:55:13;11.30;99.90
3330;DHT22;1677;49.576;10.990;2023-03-14T13:57:47;11.40;99.90
3330;DHT22;1677;49.576;10.990;2023-03-14T14:00:19;10.90;99.90
3330;DHT22;1677;49.576;10.990;2023-03-14T14:02:45;10.90;99.90
3330;DHT22;1677;49.576;10.990;2023-03-14T14:05:11;11.00;99.90
3330;DHT22;1677;49.576;10.990;2023-03-14T14:07:37;10.90;99.90
3330;DHT22;1677;49.576;10.990;2023-03-14T14:10:04;11.00;99.90
3330;DHT22;1677;49.576;10.990;2023-03-14T14:12:34;10.70;99.90
3330;DHT22;1677;49.576;10.990;2023-03-14T14:15:26;10.80;99.90
3330;DHT22;1677;49.576;10.990;2023-03-14T14:17:57;10.70;99.90
3330;DHT22;1677;49.576;10.990;2023-03-14T14:22:57;10.70;99.90
3330;DHT22;1677;49.576;10.990;2023-03-14T14:25:23;10.60;99.90
3330;DHT22;1677;49.576;10.990;2023-03-14T14:27:49;10.50;99.90
3330;DHT22;1677;49.576;10.990;2023-03-14T14:32:48;10.50;99.90
3330;DHT22;1677;49.576;10.990;2023-03-14T14:35:26;10.30;99.90
3330;DHT22;1677;49.576;10.990;2023-03-14T14:37:52;10.30;99.90
3330;DHT22;1677;49.576;10.990;2023-03-14T14:40:30;10.20;99.90
3330;DHT22;1677;49.576;10.990;2023-03-14T14:43:03;10.10;99.90
3330;DHT22;1677;49.576;10.990;2023-03-14T14:45:29;9.70;99.90
3330;DHT22;1677;49.576;10.990;2023-03-14T14:47:59;9.60;99.90
3330;DHT22;1677;49.576;10.990;2023-03-14T14:50:32;9.50;99.90
3330;DHT22;1677;49.576;10.990;2023-03-14T14:53:03;9.40;99.90
3330;DHT22;1677;49.576;10.990;2023-03-14T14:55:45;9.50;99.90
3330;DHT22;1677;49.576;10.990;2023-03-14T14:58:40;9.40;99.90
3330;DHT22;1677;49.576;10.990;2023-03-14T15:01:45;9.60;99.90
3330;DHT22;1677;49.576;10.990;2023-03-14T15:04:11;9.50;99.90
3330;DHT22;1677;49.576;10.990;2023-03-14T15:06:38;9.50;99.90
3330;DHT22;1677;49.576;10.990;2023-03-14T15:09:05;9.50;99.90
3330;DHT22;1677;49.576;10.990;2023-03-14T15:11:30;9.30;99.90
3330;DHT22;1677;49.576;10.990;2023-03-14T15:13:56;9.20;99.90
3330;DHT22;1677;49.576;10.990;2023-03-14T15:16:24;9.10;99.90
3330;DHT22;1677;49.576;10.990;2023-03-14T15:18:57;9.00;99.90
3330;DHT22;1677;49.576;10.990;2023-03-14T15:21:24;9.10;99.90
3330;DHT22;1677;49.576;10.990;2023-03-14T15:23:50;9.00;99.90
3330;DHT22;1677;49.576;10.990;2023-03-14T15:26:22;8.80;99.90
3330;DHT22;1677;49.576;10.990;2023-03-14T15:28:48;8.60;99.90
3330;DHT22;1677;49.576;10.990;2023-03-14T15:31:15;8.70;99.90
3330;DHT22;1677;49.576;10.990;2023-03-14T15:33:43;8.80;99.90
3330;DHT22;1677;49.576;10.990;2023-03-14T15:36:29;8.70;99.90
3330;DHT22;1677;49.576;10.990;2023-03-14T15:38:56;8.60;99.90
3330;DHT22;1677;49.576;10.990;2023-03-14T15:41:23;8.60;99.90
3330;DHT22;1677;49.576;10.990;2023-03-14T15:43:49;8.70;99.90
3330;DHT22;1677;49.576;10.990;2023-03-14T15:46:15;8.80;99.90
3330;DHT22;1677;49.576;10.990;2023-03-14T15:48:43;8.80;99.90
3330;DHT22;1677;49.576;10.990;2023-03-14T15:51:08;8.70;99.90
3330;DHT22;1677;49.576;10.990;2023-03-14T15:53:34;8.60;99.90
3330;DHT22;1677;49.576;10.990;2023-03-14T15:56:03;8.60;99.90
3330;DHT22;1677;49.576;10.990;2023-03-14T15:58:28;8.70;99.90
3330;DHT22;1677;49.576;10.990;2023-03-14T16:00:54;8.60;99.90
3330;DHT22;1677;49.576;10.990;2023-03-14T16:03:19;8.50;99.90
3330;DHT22;1677;49.576;10.990;2023-03-14T16:05:45;8.40;99.90
3330;DHT22;1677;49.576;10.990;2023-03-14T16:08:11;8.20;99.90
3330;DHT22;1677;49.576;10.990;2023-03-14T16:10:36;8.30;99.90
3330;DHT22;1677;49.576;10.990;2023-03-14T16:13:03;8.20;99.90
3330;DHT22;1677;49.576;10.990;2023-03-14T16:15:29;8.30;99.90
3330;DHT22;1677;49.576;10.990;2023-03-14T16:17:55;8.30;99.90
3330;DHT22;1677;49.576;10.990;2023-03-14T16:20:22;8.20;99.90
3330;DHT22;1677;49.576;10.990;2023-03-14T16:22:47;8.20;99.90
3330;DHT22;1677;49.576;10.990;2023-03-14T16:25:13;8.20;99.90
3330;DHT22;1677;49.576;10.990;2023-03-14T16:27:39;8.10;99.90
3330;DHT22;1677;49.576;10.990;2023-03-14T16:30:06;7.90;99.90
3330;DHT22;1677;49.576;10.990;2023-03-14T16:32:33;7.90;99.90
3330;DHT22;1677;49.576;10.990;2023-03-14T16:34:59;7.90;99.90
3330;DHT22;1677;49.576;10.990;2023-03-14T16:37:24;7.80;99.90
3330;DHT22;1677;49.576;10.990;2023-03-14T16:39:52;7.90;99.90
3330;DHT22;1677;49.576;10.990;2023-03-14T16:42:18;7.90;99.90
3330;DHT22;1677;49.576;10.990;2023-03-14T16:44:44;7.90;99.90
3330;DHT22;1677;49.576;10.990;2023-03-14T16:47:09;8.00;99.90
3330;DHT22;1677;49.576;10.990;2023-03-14T16:49:35;8.00;99.90
3330;DHT22;1677;49.576;10.990;2023-03-14T16:52:01;8.10;99.90
3330;DHT22;1677;49.576;10.990;2023-03-14T16:54:26;8.10;99.90
3330;DHT22;1677;49.576;10.990;2023-03-14T16:56:52;7.90;99.90
3330;DHT22;1677;49.576;10.990;2023-03-14T16:59:18;8.00;99.90
3330;DHT22;1677;49.576;10.990;2023-03-14T17:01:44;8.10;99.90
3330;DHT22;1677;49.576;10.990;2023-03-14T17:04:10;8.00;99.90